Time;durP1;ratioP1;P1;durP2;ratioP2;P2;SDS_P1;SDS_P2;PMS_P1;PMS_P2;Temp;Humidity;BMP_temperature;BMP_pressure;BME280_temperature;BME280_humidity;BME280_pressure;Samples;Min_cycle;Max_cycle;Signal;HPM_P1;HPM_P2
2021/08/27 00:00:48;;;;;;;8.02;5.35;;;13.10;99.90;;;;;;5053813;28;20494;-72
2021/08/27 00:03:14;;;;;;;12.40;5.30;;;13.10;99.90;;;;;;5053322;28;20037;-71
2021/08/27 00:05:39;;;;;;;7.63;5.03;;;13.10;99.90;;;;;;5033857;28;20035;-71
2021/08/27 00:08:05;;;;;;;9.13;5.40;;;13.10;99.90;;;;;;5053265;28;20032;-72
2021/08/27 00:10:31;;;;;;;10.60;5.43;;;13.00;99.90;;;;;;5053240;28;20044;-71
2021/08/27 00:12:57;;;;;;;11.07;5.72;;;13.00;99.90;;;;;;5053730;28;20055;-72
2021/08/27 00:15:23;;;;;;;12.20;5.72;;;13.10;99.90;;;;;;5051896;28;20036;-71
2021/08/27 00:17:49;;;;;;;8.13;5.43;;;13.10;99.90;;;;;;5053133;28;20024;-71
2021/08/27 00:20:15;;;;;;;10.43;6.45;;;13.00;99.90;;;;;;5052721;28;20032;-71
2021/08/27 00:22:41;;;;;;;9.32;6.00;;;13.10;99.90;;;;;;5054396;28;20108;-71
2021/08/27 00:25:07;;;;;;;12.27;6.32;;;13.10;99.90;;;;;;5102815;23;20040;-72
2021/08/27 00:27:33;;;;;;;11.63;6.47;;;13.00;99.90;;;;;;5057736;28;20102;-70
2021/08/27 00:30:00;;;;;;;10.77;6.10;;;13.00;99.90;;;;;;5072664;28;20486;-71
2021/08/27 00:32:27;;;;;;;10.25;5.97;;;13.00;99.90;;;;;;5072821;28;20478;-71
2021/08/27 00:34:53;;;;;;;9.90;5.65;;;12.90;99.90;;;;;;5071052;28;20040;-71
2021/08/27 00:37:19;;;;;;;13.27;5.35;;;13.00;99.90;;;;;;5072649;28;20031;-71
2021/08/27 00:39:45;;;;;;;7.45;5.55;;;12.90;99.90;;;;;;5054506;28;20241;-71
2021/08/27 00:42:10;;;;;;;12.70;6.25;;;12.80;99.90;;;;;;5072565;28;20497;-70
2021/08/27 00:44:36;;;;;;;12.77;6.45;;;12.90;99.90;;;;;;5071844;28;20425;-71
2021/08/27 00:47:03;;;;;;;9.15;6.25;;;12.90;99.90;;;;;;5072475;28;20478;-70
2021/08/27 00:49:29;;;;;;;9.45;6.60;;;12.90;99.90;;;;;;5071612;28;20028;-70
2021/08/27 00:51:55;;;;;;;9.20;5.80;;;12.90;99.90;;;;;;5072388;28;20470;-71
2021/08/27 00:54:22;;;;;;;9.05;6.00;;;12.90;99.90;;;;;;5071674;28;20033;-71
2021/08/27 00:56:51;;;;;;;11.55;6.70;;;12.90;99.90;;;;;;5053153;28;20031;-71
2021/08/27 00:59:17;;;;;;;10.50;6.22;;;13.00;99.90;;;;;;5072177;28;20625;-71
2021/08/27 01:01:43;;;;;;;9.70;6.03;;;13.00;99.90;;;;;;5072163;28;20056;-70
2021/08/27 01:04:11;;;;;;;13.20;6.10;;;13.00;99.90;;;;;;5071929;28;20100;-70
2021/08/27 01:06:53;;;;;;;8.48;5.93;;;13.00;99.90;;;;;;5070835;28;20028;-71
2021/08/27 01:09:54;;;;;;;9.50;6.18;;;12.90;99.90;;;;;;5071575;28;20016;-71
2021/08/27 01:12:22;;;;;;;15.18;6.15;;;13.00;99.90;;;;;;5055363;28;20059;-71
2021/08/27 01:15:00;;;;;;;8.93;5.88;;;13.00;99.90;;;;;;5071085;28;20058;-70
2021/08/27 01:17:37;;;;;;;10.65;6.45;;;12.90;99.90;;;;;;5071891;28;20455;-71
2021/08/27 01:20:24;;;;;;;8.82;6.70;;;13.00;99.90;;;;;;5071120;28;20351;-71
2021/08/27 01:23:42;;;;;;;10.02;6.03;;;13.10;99.90;;;;;;5053512;28;20024;-71
2021/08/27 01:26:13;;;;;;;10.63;6.00;;;13.10;99.90;;;;;;4969734;28;20073;-72
2021/08/27 01:28:44;;;;;;;10.95;6.10;;;13.00;99.90;;;;;;5065722;28;20036;-70
2021/08/27 01:31:17;;;;;;;11.38;6.95;;;13.00;99.90;;;;;;5071350;28;20115;-71
2021/08/27 01:34:25;;;;;;;11.23;6.18;;;12.90;99.90;;;;;;5053503;28;20032;-71
2021/08/27 01:36:52;;;;;;;10.60;6.72;;;12.90;99.90;;;;;;5036919;28;20033;-70
2021/08/27 01:39:20;;;;;;;10.13;6.82;;;12.90;99.90;;;;;;5071162;28;20016;-70
2021/08/27 01:41:51;;;;;;;7.00;5.78;;;12.90;99.90;;;;;;5071326;28;20028;-71
2021/08/27 01:44:20;;;;;;;6.45;5.85;;;13.00;99.90;;;;;;5070879;28;20020;-70
2021/08/27 01:46:46;;;;;;;6.60;5.57;;;13.00;99.90;;;;;;5071263;28;20025;-71
2021/08/27 01:49:13;;;;;;;8.55;5.60;;;12.90;99.90;;;;;;5071178;28;20111;-70
2021/08/27 01:51:42;;;;;;;8.35;5.30;;;13.00;99.90;;;;;;5071294;28;20092;-71
2021/08/27 01:54:09;;;;;;;9.38;5.20;;;13.00;99.90;;;;;;5070925;28;20024;-70
2021/08/27 01:56:37;;;;;;;8.10;4.68;;;13.00;99.90;;;;;;5070811;28;20027;-70
2021/08/27 01:59:04;;;;;;;7.20;4.80;;;12.90;99.90;;;;;;5070823;28;20478;-70
2021/08/27 02:01:31;;;;;;;8.23;4.80;;;12.80;99.90;;;;;;5070757;28;20017;-71
2021/08/27 02:04:00;;;;;;;8.75;5.28;;;12.70;99.90;;;;;;5071162;28;20381;-70
2021/08/27 02:06:27;;;;;;;9.50;5.72;;;12.70;99.90;;;;;;5070300;28;20031;-72
2021/08/27 02:08:54;;;;;;;11.60;6.28;;;12.70;99.90;;;;;;5070471;28;20394;-72
2021/08/27 02:11:20;;;;;;;8.68;5.28;;;12.80;99.90;;;;;;5070881;28;20024;-70
2021/08/27 02:13:47;;;;;;;9.10;5.45;;;12.80;99.90;;;;;;5070742;28;20024;-71
2021/08/27 02:16:14;;;;;;;10.40;5.30;;;12.80;99.90;;;;;;5070278;28;20025;-69
2021/08/27 02:18:40;;;;;;;11.35;5.20;;;12.90;99.90;;;;;;5070901;28;20028;-71
2021/08/27 02:21:08;;;;;;;10.88;5.40;;;12.90;99.90;;;;;;5070813;28;20112;-71
2021/08/27 02:23:35;;;;;;;10.25;5.65;;;12.90;99.90;;;;;;5070588;28;20043;-72
2021/08/27 02:26:02;;;;;;;8.60;5.78;;;12.80;99.90;;;;;;5069717;28;20156;-71
2021/08/27 02:28:29;;;;;;;9.07;5.53;;;13.00;99.90;;;;;;5070649;28;20064;-71
2021/08/27 02:30:56;;;;;;;7.82;5.30;;;13.10;99.90;;;;;;5070871;28;20028;-72
2021/08/27 02:33:25;;;;;;;8.18;5.30;;;12.90;99.90;;;;;;5070686;28;20042;-71
2021/08/27 02:35:51;;;;;;;10.00;5.38;;;12.80;99.90;;;;;;5069719;28;20021;-71
2021/08/27 02:38:20;;;;;;;10.20;4.85;;;12.90;99.90;;;;;;5070545;28;20073;-71
2021/08/27 02:40:45;;;;;;;7.43;4.82;;;12.90;99.90;;;;;;5070327;28;20031;-70
2021/08/27 02:43:11;;;;;;;10.07;5.20;;;12.80;99.90;;;;;;5070495;28;20036;-71
2021/08/27 02:45:37;;;;;;;8.23;5.07;;;12.80;99.90;;;;;;5069761;28;20033;-71
2021/08/27 02:48:03;;;;;;;8.35;4.60;;;12.80;99.90;;;;;;5070426;28;20425;-72
2021/08/27 02:50:31;;;;;;;10.10;5.05;;;12.80;99.90;;;;;;5070194;28;20119;-72
2021/08/27 02:53:27;;;;;;;6.63;5.05;;;12.90;99.90;;;;;;5071270;28;20021;-71
2021/08/27 02:55:58;;;;;;;6.82;4.78;;;12.80;99.90;;;;;;5067109;28;20608;-71
2021/08/27 02:58:27;;;;;;;8.60;5.28;;;12.60;99.90;;;;;;5071119;28;20108;-70
2021/08/27 03:01:07;;;;;;;11.18;5.35;;;12.50;99.90;;;;;;5071039;28;20036;-72
2021/08/27 03:03:41;;;;;;;8.35;4.90;;;12.40;99.90;;;;;;5070519;28;20052;-70
2021/08/27 03:06:19;;;;;;;7.90;4.97;;;12.40;99.90;;;;;;5070418;28;20028;-70
2021/08/27 03:08:50;;;;;;;7.75;4.65;;;12.50;99.90;;;;;;5071072;28;20024;-68
2021/08/27 03:11:28;;;;;;;7.63;5.20;;;12.60;99.90;;;;;;5071763;28;20111;-70
2021/08/27 03:14:07;;;;;;;8.68;4.57;;;12.70;99.90;;;;;;5074923;28;20025;-69
2021/08/27 03:16:34;;;;;;;7.05;4.65;;;12.80;99.90;;;;;;5089985;28;20474;-70
2021/08/27 03:19:09;;;;;;;7.95;4.68;;;13.00;99.90;;;;;;5092285;28;20021;-68
2021/08/27 03:21:58;;;;;;;8.57;5.00;;;13.10;99.90;;;;;;5092349;28;20040;-71
2021/08/27 03:25:01;;;;;;;7.45;4.00;;;13.20;99.90;;;;;;5092849;28;20033;-71
2021/08/27 03:27:34;;;;;;;9.27;4.82;;;13.20;99.90;;;;;;5051055;28;20041;-71
2021/08/27 03:30:04;;;;;;;7.13;4.20;;;13.20;99.90;;;;;;5074771;28;20049;-72
2021/08/27 03:32:30;;;;;;;8.85;4.20;;;13.10;99.90;;;;;;5074814;28;20031;-70
2021/08/27 03:34:58;;;;;;;6.78;4.18;;;13.00;99.90;;;;;;5074071;28;20048;-70
2021/08/27 03:37:24;;;;;;;6.38;4.35;;;13.00;99.90;;;;;;5073856;28;20035;-71
2021/08/27 03:39:51;;;;;;;7.88;4.32;;;12.90;99.90;;;;;;5056475;28;20028;-71
2021/08/27 03:42:19;;;;;;;4.68;4.22;;;12.90;99.90;;;;;;5069360;28;20046;-75
2021/08/27 03:44:46;;;;;;;9.60;4.50;;;13.00;99.90;;;;;;5070819;28;20028;-75
2021/08/27 03:47:14;;;;;;;7.53;4.75;;;13.00;99.90;;;;;;5074413;28;20474;-76
2021/08/27 03:49:40;;;;;;;8.45;4.60;;;13.00;99.90;;;;;;5072768;28;20024;-75
2021/08/27 03:52:08;;;;;;;6.53;4.63;;;12.90;99.90;;;;;;5074134;28;20506;-75
2021/08/27 03:54:34;;;;;;;10.07;5.15;;;12.80;99.90;;;;;;5073180;28;20052;-75
2021/08/27 03:57:02;;;;;;;9.07;4.70;;;12.90;99.90;;;;;;5073792;28;20149;-76
2021/08/27 03:59:28;;;;;;;9.43;5.05;;;12.80;99.90;;;;;;5073092;28;20032;-75
2021/08/27 04:01:55;;;;;;;7.82;4.88;;;12.80;99.90;;;;;;5073776;28;20035;-75
2021/08/27 04:04:22;;;;;;;9.98;5.43;;;12.70;99.90;;;;;;5073482;28;20028;-75
2021/08/27 04:06:54;;;;;;;9.75;5.10;;;12.60;99.90;;;;;;5074248;28;20032;-77
2021/08/27 04:09:20;;;;;;;;;;;12.70;99.90;;;;;;5074410;28;20477;-75
2021/08/27 04:11:45;;;;;;;8.57;5.20;;;12.70;99.90;;;;;;5072396;28;19911;-75
2021/08/27 04:14:11;;;;;;;7.63;5.22;;;12.80;99.90;;;;;;5073437;28;20440;-74
2021/08/27 04:16:47;;;;;;;10.95;5.28;;;12.90;99.90;;;;;;5072793;28;20021;-76
2021/08/27 04:19:13;;;;;;;7.20;5.22;;;12.80;99.90;;;;;;5074274;28;20055;-78
2021/08/27 04:21:39;;;;;;;10.75;5.57;;;12.60;99.90;;;;;;5072739;28;20048;-78
2021/08/27 04:24:05;;;;;;;9.05;5.68;;;12.60;99.90;;;;;;5072190;28;20017;-78
2021/08/27 04:26:32;;;;;;;8.57;5.78;;;12.60;99.90;;;;;;5073695;28;20107;-76
2021/08/27 04:28:57;;;;;;;8.73;5.22;;;12.60;99.90;;;;;;5074758;28;20039;-80
2021/08/27 04:31:23;;;;;;;10.68;5.93;;;12.60;99.90;;;;;;5075433;28;20020;-80
2021/08/27 04:33:49;;;;;;;9.98;5.65;;;12.70;99.90;;;;;;5074593;28;20032;-81
2021/08/27 04:36:15;;;;;;;11.77;6.32;;;12.60;99.90;;;;;;5074919;28;20364;-80
2021/08/27 04:38:41;;;;;;;10.43;4.95;;;12.40;99.90;;;;;;5091822;28;20034;-80
2021/08/27 04:41:07;;;;;;;7.40;5.22;;;12.30;99.90;;;;;;5097504;28;20067;-80
2021/08/27 04:43:33;;;;;;;11.52;5.80;;;12.40;99.90;;;;;;5086332;28;20037;-81
2021/08/27 04:45:59;;;;;;;8.82;6.65;;;12.50;99.90;;;;;;5071097;28;20021;-77
2021/08/27 04:48:25;;;;;;;10.68;5.75;;;12.70;99.90;;;;;;5073183;28;20017;-75
2021/08/27 04:50:51;;;;;;;8.00;5.35;;;12.70;99.90;;;;;;5053927;28;20024;-79
2021/08/27 04:53:17;;;;;;;8.52;6.30;;;12.70;99.90;;;;;;5071611;28;20020;-79
2021/08/27 04:55:42;;;;;;;8.25;5.65;;;12.60;99.90;;;;;;5071982;28;20118;-80
2021/08/27 04:58:08;;;;;;;7.57;6.30;;;12.70;99.90;;;;;;5053710;28;20051;-80
2021/08/27 05:00:34;;;;;;;7.03;5.53;;;12.90;99.90;;;;;;5053459;28;20029;-79
2021/08/27 05:03:00;;;;;;;10.35;5.93;;;12.90;99.90;;;;;;5053168;28;20029;-79
2021/08/27 05:05:25;;;;;;;8.93;5.53;;;13.10;99.90;;;;;;5052119;28;20025;-78
2021/08/27 05:07:51;;;;;;;8.73;6.22;;;13.10;99.90;;;;;;5061412;28;20020;-78
2021/08/27 05:10:17;;;;;;;11.82;6.65;;;13.10;99.90;;;;;;5072799;28;20028;-75
2021/08/27 05:12:42;;;;;;;10.68;5.72;;;13.00;99.90;;;;;;5073345;28;20024;-77
2021/08/27 05:15:09;;;;;;;7.72;5.25;;;13.00;99.90;;;;;;5072250;28;20024;-78
2021/08/27 05:17:35;;;;;;;9.52;6.03;;;13.00;99.90;;;;;;5072987;28;20486;-78
2021/08/27 05:20:02;;;;;;;9.23;5.97;;;13.00;99.90;;;;;;5072793;28;20051;-78
2021/08/27 05:22:27;;;;;;;7.28;5.78;;;12.90;99.90;;;;;;5072673;28;20111;-78
2021/08/27 05:24:53;;;;;;;8.60;5.25;;;12.90;99.90;;;;;;5071978;28;20100;-76
2021/08/27 05:27:19;;;;;;;8.65;5.90;;;12.90;99.90;;;;;;5072729;28;20032;-75
2021/08/27 05:29:44;;;;;;;10.73;5.95;;;12.90;99.90;;;;;;5072738;28;20032;-75
2021/08/27 05:32:10;;;;;;;9.55;5.60;;;12.70;99.90;;;;;;5073160;28;20070;-76
2021/08/27 05:34:36;;;;;;;8.25;5.78;;;12.70;99.90;;;;;;5071570;28;20054;-75
2021/08/27 05:37:03;;;;;;;12.45;5.53;;;12.60;99.90;;;;;;5071792;28;20475;-77
2021/08/27 05:39:29;;;;;;;14.43;5.47;;;12.60;99.90;;;;;;5072933;28;20119;-77
2021/08/27 05:41:56;;;;;;;12.77;5.78;;;12.60;99.90;;;;;;5072099;28;20494;-77
2021/08/27 05:44:22;;;;;;;12.23;5.45;;;12.50;99.90;;;;;;5071072;28;20033;-77
2021/08/27 05:46:48;;;;;;;11.20;5.72;;;12.60;99.90;;;;;;5071827;28;20033;-76
2021/08/27 05:49:14;;;;;;;11.77;6.40;;;12.70;99.90;;;;;;5072245;28;20078;-76
2021/08/27 05:51:40;;;;;;;8.70;5.85;;;12.60;99.90;;;;;;5072329;28;20335;-70
2021/08/27 05:54:05;;;;;;;9.70;6.13;;;12.70;99.90;;;;;;5071211;28;20091;-74
2021/08/27 05:56:31;;;;;;;12.48;5.95;;;13.20;99.90;;;;;;5071004;28;20028;-76
2021/08/27 05:58:56;;;;;;;9.15;5.97;;;13.10;99.90;;;;;;5053442;28;20082;-76
2021/08/27 06:01:22;;;;;;;11.07;6.50;;;12.90;99.90;;;;;;5051157;28;20087;-75
2021/08/27 06:03:48;;;;;;;8.80;5.97;;;12.90;99.90;;;;;;5051141;28;20017;-76
2021/08/27 06:06:13;;;;;;;11.75;6.35;;;12.80;99.90;;;;;;5058934;28;20525;-76
2021/08/27 06:08:39;;;;;;;9.10;5.43;;;12.80;99.90;;;;;;5067581;28;20020;-77
2021/08/27 06:11:05;;;;;;;10.70;5.57;;;12.90;99.90;;;;;;5071647;28;20063;-76
2021/08/27 06:13:30;;;;;;;10.35;5.40;;;13.00;99.90;;;;;;5071578;28;20375;-76
2021/08/27 06:15:57;;;;;;;8.30;5.75;;;12.90;99.90;;;;;;5070851;28;20095;-76
2021/08/27 06:18:23;;;;;;;10.50;5.70;;;12.90;99.90;;;;;;5053582;28;20025;-77
2021/08/27 06:20:50;;;;;;;9.82;5.50;;;13.00;99.90;;;;;;5071464;28;20070;-77
2021/08/27 06:23:16;;;;;;;8.77;5.20;;;13.10;99.90;;;;;;5071339;28;20054;-76
2021/08/27 06:25:42;;;;;;;9.95;6.00;;;13.00;99.90;;;;;;5107674;22;20050;-79
2021/08/27 06:28:07;;;;;;;13.55;6.30;;;12.90;99.90;;;;;;5057664;28;20033;-80
2021/08/27 06:30:33;;;;;;;11.07;6.00;;;13.00;99.90;;;;;;5055434;28;20119;-80
2021/08/27 06:32:59;;;;;;;11.82;6.03;;;13.30;99.90;;;;;;5053583;28;20108;-79
2021/08/27 06:35:25;;;;;;;11.55;6.25;;;13.40;99.90;;;;;;5057285;28;20025;-79
2021/08/27 06:40:35;;;;;;;12.43;5.97;;;13.70;99.90;;;;;;5096065;28;20092;-80
2021/08/27 06:43:01;;;;;;;13.07;5.57;;;13.90;99.90;;;;;;5094470;28;20540;-79
2021/08/27 06:45:26;;;;;;;7.28;5.65;;;13.80;99.90;;;;;;5092776;28;20390;-78
2021/08/27 06:47:52;;;;;;;9.77;6.15;;;14.00;99.90;;;;;;5098890;28;20020;-78
2021/08/27 06:50:18;;;;;;;10.43;7.97;;;14.00;99.90;;;;;;5098539;28;20031;-79
2021/08/27 06:52:43;;;;;;;9.32;6.97;;;14.10;99.90;;;;;;5099895;28;20470;-78
2021/08/27 06:55:10;;;;;;;11.48;7.65;;;14.20;99.90;;;;;;5097927;28;20166;-79
2021/08/27 06:57:35;;;;;;;10.10;7.70;;;14.30;99.90;;;;;;5099142;28;20438;-77
2021/08/27 07:00:01;;;;;;;8.80;7.38;;;14.40;99.90;;;;;;5099321;28;20020;-79
2021/08/27 07:02:27;;;;;;;9.65;7.50;;;14.50;99.90;;;;;;5099437;28;20028;-79
2021/08/27 07:04:53;;;;;;;8.73;6.78;;;14.50;99.90;;;;;;5081290;28;20024;-79
2021/08/27 07:07:18;;;;;;;9.77;6.88;;;14.50;99.90;;;;;;5099338;28;20037;-78
2021/08/27 07:09:44;;;;;;;11.38;7.28;;;14.40;99.90;;;;;;5098620;28;20382;-77
2021/08/27 07:12:12;;;;;;;13.48;6.72;;;14.50;99.90;;;;;;5099484;28;20435;-80
2021/08/27 07:14:38;;;;;;;10.88;7.22;;;14.80;99.90;;;;;;5098650;28;20024;-80
2021/08/27 07:17:03;;;;;;;8.60;6.75;;;15.10;99.90;;;;;;5099196;28;20393;-80
2021/08/27 07:19:29;;;;;;;7.38;5.43;;;15.00;99.90;;;;;;5098633;28;20028;-79
2021/08/27 07:21:55;;;;;;;6.72;5.30;;;15.20;99.90;;;;;;5099717;28;20078;-79
2021/08/27 07:24:20;;;;;;;9.38;6.45;;;15.40;99.90;;;;;;5098957;28;20390;-79
2021/08/27 07:26:46;;;;;;;7.85;5.78;;;15.70;99.90;;;;;;5099121;28;20131;-78
2021/08/27 07:29:12;;;;;;;7.63;4.72;;;16.00;99.90;;;;;;5079909;28;20165;-79
2021/08/27 07:31:38;;;;;;;10.48;5.35;;;15.90;99.90;;;;;;5099087;28;20020;-80
2021/08/27 07:34:03;;;;;;;7.03;5.10;;;15.80;99.90;;;;;;5099277;28;20020;-79
2021/08/27 07:36:29;;;;;;;7.15;4.93;;;15.60;99.90;;;;;;5099792;28;20032;-80
2021/08/27 07:38:55;;;;;;;8.45;5.00;;;15.60;99.90;;;;;;5099154;28;20043;-79
2021/08/27 07:41:20;;;;;;;8.05;5.53;;;15.40;99.90;;;;;;5099517;28;20051;-79
2021/08/27 07:43:46;;;;;;;5.47;4.05;;;15.60;99.90;;;;;;5099008;28;20024;-79
2021/08/27 07:46:12;;;;;;;6.70;4.05;;;15.60;99.90;;;;;;5098576;28;20448;-79
2021/08/27 07:48:37;;;;;;;8.43;4.75;;;15.50;99.90;;;;;;5099359;28;20925;-79
2021/08/27 07:51:03;;;;;;;8.20;3.63;;;15.20;99.90;;;;;;5099296;28;20028;-78
2021/08/27 07:53:29;;;;;;;6.63;4.35;;;15.10;99.90;;;;;;5081069;28;20466;-80
2021/08/27 07:55:55;;;;;;;4.75;3.60;;;15.20;99.90;;;;;;5097928;28;20027;-79
2021/08/27 07:58:20;;;;;;;8.82;3.63;;;15.40;99.90;;;;;;5095365;28;20020;-78
2021/08/27 08:00:46;;;;;;;5.43;3.85;;;15.40;99.90;;;;;;5095039;28;20085;-80
2021/08/27 08:03:12;;;;;;;8.68;4.82;;;15.50;99.90;;;;;;5094312;28;20138;-79
2021/08/27 08:05:37;;;;;;;8.40;4.70;;;15.30;99.90;;;;;;5076648;28;20038;-78
2021/08/27 08:08:03;;;;;;;8.82;4.80;;;15.30;99.90;;;;;;5095407;28;20047;-81
2021/08/27 08:10:29;;;;;;;5.53;4.50;;;15.20;99.90;;;;;;5094218;28;20488;-80
2021/08/27 08:12:55;;;;;;;5.72;4.22;;;15.30;99.90;;;;;;5095564;28;20027;-78
2021/08/27 08:15:21;;;;;;;7.28;4.22;;;15.40;99.90;;;;;;5094778;28;20032;-78
2021/08/27 08:17:47;;;;;;;6.97;4.20;;;15.30;99.90;;;;;;5095667;28;20020;-79
2021/08/27 08:20:13;;;;;;;6.13;3.78;;;15.30;99.90;;;;;;5096303;28;20503;-80
2021/08/27 08:22:38;;;;;;;4.65;2.85;;;15.50;99.90;;;;;;5095993;28;20065;-79
2021/08/27 08:25:05;;;;;;;4.88;2.85;;;15.20;99.90;;;;;;5094737;28;20039;-77
2021/08/27 08:27:33;;;;;;;6.15;2.58;;;15.40;99.90;;;;;;5094564;28;20036;-78
2021/08/27 08:30:00;;;;;;;2.53;2.28;;;15.70;99.90;;;;;;5094907;28;20028;-79
2021/08/27 08:32:26;;;;;;;3.88;2.25;;;16.00;99.90;;;;;;5095054;28;20032;-78
2021/08/27 08:34:51;;;;;;;3.42;2.15;;;16.20;99.90;;;;;;5082116;28;20229;-78
2021/08/27 08:37:17;;;;;;;1.65;1.50;;;16.10;99.90;;;;;;5095936;28;20028;-79
2021/08/27 08:39:43;;;;;;;3.22;2.10;;;16.60;99.90;;;;;;5094566;28;20028;-78
2021/08/27 08:42:08;;;;;;;7.47;1.90;;;17.30;99.90;;;;;;5094425;28;20066;-78
2021/08/27 08:44:34;;;;;;;3.05;1.70;;;17.80;99.90;;;;;;5093062;28;20125;-78
2021/08/27 08:47:02;;;;;;;2.53;1.70;;;17.80;99.90;;;;;;5094257;28;20102;-77
2021/08/27 08:49:29;;;;;;;5.68;1.60;;;17.40;99.90;;;;;;5094072;28;20099;-78
2021/08/27 08:51:56;;;;;;;2.97;1.35;;;17.40;99.90;;;;;;5094178;28;20020;-77
2021/08/27 08:54:22;;;;;;;1.50;1.40;;;17.00;99.90;;;;;;5090648;28;20024;-77
2021/08/27 08:56:48;;;;;;;4.60;1.98;;;16.70;99.90;;;;;;5074396;28;20029;-79
2021/08/27 08:59:14;;;;;;;3.45;1.95;;;16.70;99.90;;;;;;5074135;28;20027;-77
2021/08/27 09:01:40;;;;;;;2.75;1.40;;;16.80;99.90;;;;;;5055988;28;20028;-78
2021/08/27 09:04:06;;;;;;;3.97;1.80;;;17.40;99.90;;;;;;5088712;28;20470;-77
2021/08/27 09:06:35;;;;;;;1.83;1.50;;;17.40;99.90;;;;;;5093543;28;20032;-79
2021/08/27 09:09:01;;;;;;;3.25;1.60;;;17.40;99.90;;;;;;5093791;28;20027;-78
2021/08/27 09:11:29;;;;;;;2.28;1.52;;;17.60;99.90;;;;;;5093987;28;20028;-80
2021/08/27 09:13:57;;;;;;;4.40;1.40;;;17.70;99.90;;;;;;5095881;28;20073;-79
2021/08/27 09:16:28;;;;;;;5.20;1.40;;;18.50;99.90;;;;;;5094139;28;20016;-79
2021/08/27 09:18:55;;;;;;;2.17;1.10;;;19.20;99.90;;;;;;5094220;28;20026;-79
2021/08/27 09:21:46;;;;;;;1.65;0.80;;;19.80;99.90;;;;;;5094525;28;20032;-77
2021/08/27 09:24:27;;;;;;;1.58;0.70;;;19.60;99.90;;;;;;5093685;28;20030;-77
2021/08/27 09:26:58;;;;;;;2.30;1.08;;;18.80;99.90;;;;;;5093989;28;20043;-79
2021/08/27 09:29:33;;;;;;;1.30;0.90;;;19.00;99.90;;;;;;5094196;28;20051;-78
2021/08/27 09:31:59;;;;;;;2.20;0.82;;;19.00;99.90;;;;;;5094118;28;20361;-80
2021/08/27 09:34:29;;;;;;;1.73;0.90;;;18.40;99.90;;;;;;5093190;28;20020;-79
2021/08/27 09:36:58;;;;;;;1.98;0.82;;;18.20;99.90;;;;;;5093743;28;20035;-80
2021/08/27 09:39:34;;;;;;;1.10;0.90;;;19.00;99.90;;;;;;5093359;28;20047;-79
2021/08/27 09:42:01;;;;;;;4.60;0.80;;;20.20;99.90;;;;;;5093482;28;20017;-79
2021/08/27 09:44:27;;;;;;;1.77;0.82;;;20.20;99.90;;;;;;5092934;28;20355;-77
2021/08/27 09:46:53;;;;;;;3.45;0.90;;;20.60;99.90;;;;;;5094128;28;20035;-78
2021/08/27 09:49:26;;;;;;;1.63;0.95;;;22.70;99.90;;;;;;5094498;28;20032;-79
2021/08/27 09:51:52;;;;;;;1.73;0.85;;;23.20;98.50;;;;;;5094288;28;20020;-79
2021/08/27 09:54:31;;;;;;;1.85;0.95;;;21.60;97.90;;;;;;5075307;28;20069;-78
2021/08/27 09:57:07;;;;;;;1.30;1.00;;;21.40;99.90;;;;;;5094579;28;20016;-81
2021/08/27 09:59:40;;;;;;;2.45;0.85;;;21.70;98.50;;;;;;5095871;28;20135;-79
2021/08/27 10:02:11;;;;;;;1.55;0.80;;;21.00;99.90;;;;;;5093270;28;20024;-78
2021/08/27 10:04:52;;;;;;;0.63;0.63;;;21.10;98.10;;;;;;5083124;28;20047;-78
2021/08/27 10:07:30;;;;;;;2.15;0.50;;;20.70;96.50;;;;;;5073154;28;20262;-76
2021/08/27 10:09:59;;;;;;;1.45;0.73;;;20.90;99.10;;;;;;5072750;28;20035;-79
2021/08/27 10:12:30;;;;;;;1.65;0.70;;;22.80;95.50;;;;;;5067400;28;20027;-79
2021/08/27 10:14:57;;;;;;;1.23;0.50;;;24.40;96.50;;;;;;5091509;28;20032;-79
2021/08/27 10:17:23;;;;;;;1.15;0.73;;;23.10;93.50;;;;;;5093295;28;20031;-79
2021/08/27 10:19:49;;;;;;;1.52;0.77;;;21.90;96.50;;;;;;5093424;28;20020;-79
2021/08/27 10:22:15;;;;;;;1.92;0.90;;;22.00;97.10;;;;;;5093129;28;20771;-79
2021/08/27 10:24:43;;;;;;;2.60;1.33;;;21.80;97.80;;;;;;5092536;28;20028;-79
2021/08/27 10:27:10;;;;;;;3.08;0.80;;;22.00;96.90;;;;;;5093883;28;20085;-78
2021/08/27 10:29:46;;;;;;;1.85;1.00;;;21.30;97.40;;;;;;5092718;28;20032;-78
2021/08/27 10:32:12;;;;;;;1.83;1.10;;;20.60;97.20;;;;;;5093422;28;20020;-78
2021/08/27 10:34:46;;;;;;;1.95;0.98;;;20.10;99.40;;;;;;5092054;28;20074;-78
2021/08/27 10:37:43;;;;;;;0.95;0.70;;;20.40;99.90;;;;;;5093624;28;20069;-79
2021/08/27 10:40:26;;;;;;;1.23;0.90;;;19.80;99.90;;;;;;5093331;28;20085;-79
2021/08/27 10:42:58;;;;;;;1.35;1.17;;;18.80;99.90;;;;;;5094150;28;20099;-80
2021/08/27 10:45:30;;;;;;;1.15;0.90;;;19.30;99.90;;;;;;5092511;28;20111;-80
2021/08/27 10:48:24;;;;;;;1.27;0.93;;;19.60;99.90;;;;;;5092840;28;20050;-81
2021/08/27 10:50:59;;;;;;;2.85;0.77;;;21.00;98.90;;;;;;5091789;28;20158;-82
2021/08/27 10:53:35;;;;;;;3.55;0.90;;;22.20;96.90;;;;;;5093292;28;20374;-82
2021/08/27 10:56:04;;;;;;;1.80;1.00;;;23.30;95.10;;;;;;5091811;28;20028;-81
2021/08/27 10:58:52;;;;;;;1.98;0.77;;;22.20;94.90;;;;;;5072764;28;20032;-81
2021/08/27 11:01:32;;;;;;;1.00;0.70;;;21.20;96.80;;;;;;5075924;28;20040;-82
2021/08/27 11:04:16;;;;;;;1.50;0.93;;;22.20;97.50;;;;;;5091077;28;20114;-82
2021/08/27 11:06:54;;;;;;;1.15;0.90;;;23.70;93.50;;;;;;5096855;28;20024;-82
2021/08/27 11:09:28;;;;;;;1.40;0.75;;;22.80;93.50;;;;;;5093496;28;20115;-81
2021/08/27 11:12:07;;;;;;;1.40;1.00;;;21.50;95.40;;;;;;5093938;28;20043;-82
2021/08/27 11:14:36;;;;;;;1.95;1.00;;;21.20;97.60;;;;;;5092735;28;20059;-80
2021/08/27 11:17:05;;;;;;;3.63;1.10;;;21.20;97.80;;;;;;5093140;28;20493;-81
2021/08/27 11:19:37;;;;;;;0.80;0.80;;;21.00;98.60;;;;;;5074678;28;20035;-82
2021/08/27 11:22:11;;;;;;;2.53;0.80;;;22.10;99.00;;;;;;5092916;28;20025;-82
2021/08/27 11:24:38;;;;;;;1.08;0.70;;;23.60;96.80;;;;;;5092674;28;20099;-83
2021/08/27 11:27:17;;;;;;;1.25;0.95;;;25.50;94.20;;;;;;5093579;28;20039;-81
2021/08/27 11:29:45;;;;;;;1.70;1.00;;;25.70;91.90;;;;;;5075481;28;20023;-82
2021/08/27 11:32:32;;;;;;;3.33;1.35;;;25.80;92.20;;;;;;5090771;28;20381;-81
2021/08/27 11:35:07;;;;;;;3.25;1.23;;;24.40;91.20;;;;;;5088532;28;20450;-82
2021/08/27 11:37:38;;;;;;;2.33;0.85;;;24.70;92.20;;;;;;5095342;28;20016;-81
2021/08/27 11:40:08;;;;;;;1.17;0.85;;;25.10;91.80;;;;;;5097290;28;20020;-81
2021/08/27 11:42:37;;;;;;;1.42;0.90;;;25.40;92.20;;;;;;5097278;28;20023;-81
2021/08/27 11:45:11;;;;;;;1.08;0.80;;;26.60;90.60;;;;;;5096577;28;20028;-82
2021/08/27 11:47:45;;;;;;;2.58;1.00;;;25.70;86.80;;;;;;5095715;28;20027;-76
2021/08/27 11:50:47;;;;;;;1.45;0.90;;;25.00;86.40;;;;;;5080629;28;20038;-79
2021/08/27 11:53:13;;;;;;;1.85;1.08;;;24.00;88.80;;;;;;5084030;28;20028;-79
2021/08/27 11:55:41;;;;;;;1.90;0.98;;;23.80;91.90;;;;;;5095129;28;20016;-79
2021/08/27 11:58:07;;;;;;;3.40;1.00;;;23.50;90.80;;;;;;5095461;28;20453;-80
2021/08/27 12:00:37;;;;;;;1.17;1.00;;;22.90;91.70;;;;;;5094743;28;20095;-80
2021/08/27 12:03:04;;;;;;;1.55;1.45;;;22.80;92.60;;;;;;5096416;28;20043;-79
2021/08/27 12:05:30;;;;;;;4.35;1.20;;;22.40;93.10;;;;;;5091052;28;20020;-83
2021/08/27 12:08:01;;;;;;;2.95;1.38;;;22.40;94.50;;;;;;5075115;28;20028;-79
2021/08/27 12:10:30;;;;;;;3.38;1.20;;;21.70;94.40;;;;;;5074635;28;20029;-79
2021/08/27 12:12:57;;;;;;;4.68;1.40;;;20.80;94.50;;;;;;5074870;28;20025;-78
2021/08/27 12:15:26;;;;;;;4.00;0.95;;;20.30;96.00;;;;;;5074125;28;20420;-79
2021/08/27 12:17:59;;;;;;;3.55;0.90;;;20.70;97.10;;;;;;5094582;28;20045;-79
2021/08/27 12:20:27;;;;;;;2.50;1.00;;;20.90;95.70;;;;;;5094655;28;20496;-78
2021/08/27 12:22:59;;;;;;;2.42;1.55;;;21.20;97.10;;;;;;5088335;28;20051;-80
2021/08/27 12:25:28;;;;;;;2.55;1.30;;;21.40;96.00;;;;;;5073681;28;20031;-80
2021/08/27 12:27:56;;;;;;;3.13;1.15;;;21.90;95.90;;;;;;5074572;28;20036;-79
2021/08/27 12:30:24;;;;;;;1.58;1.20;;;21.70;95.80;;;;;;5107813;23;20432;-74
2021/08/27 12:32:51;;;;;;;3.20;1.35;;;21.80;97.00;;;;;;5066858;28;20544;-74
2021/08/27 12:35:21;;;;;;;4.60;1.35;;;21.60;95.10;;;;;;5071977;28;20108;-74
2021/08/27 12:37:49;;;;;;;1.92;1.25;;;20.80;95.40;;;;;;5055411;28;20020;-73
2021/08/27 12:40:17;;;;;;;2.92;1.23;;;20.40;97.60;;;;;;5060889;28;20033;-74
2021/08/27 12:43:16;;;;;;;2.83;1.13;;;20.10;97.90;;;;;;5053381;28;20033;-73
2021/08/27 12:45:50;;;;;;;2.83;1.30;;;20.00;97.50;;;;;;5008236;28;20048;-73
2021/08/27 12:48:24;;;;;;;4.78;1.17;;;19.60;98.00;;;;;;5035078;28;20025;-73
2021/08/27 12:51:04;;;;;;;2.08;0.90;;;19.50;98.20;;;;;;5052001;28;20036;-73
2021/08/27 12:53:36;;;;;;;1.83;1.10;;;20.00;98.60;;;;;;5053123;28;20025;-74
2021/08/27 12:56:22;;;;;;;2.70;1.70;;;19.70;98.10;;;;;;5052468;28;20021;-74
2021/08/27 12:58:54;;;;;;;3.55;1.10;;;20.10;97.30;;;;;;5052916;28;20406;-73